Cerro Azul, Brazil
Current Conditions -  °F | °C
As of 6:00 PM on Saturday 25 Oct 2014 (Local Time) from SBBI Reporting Station
Scattered Clouds Scattered Clouds  
Wind Chill: 75°   Ceiling: Unl
Heat Index: 75°   Visibility: 6mi
Dew Point: 63°   Wind: 3mph
Humidity: 65%   Direction: 10°N
Pressure: 29.97"   Gusts: NA
Location:  24.82°S, 49.26°W
Report Text: SBBI 252000Z 01003KT 9999 FEW005 SCT100 24/17 Q1015
Loading
Personal Weather Stations






























Interactive Weather Map
Tropical Storm Tracking
New forecast layout! Learn more

10-Day Weather Forecast

Advertisements
Track Severe Weather on mobile